createdAt,value
2019-04-25T00:02:36.640Z,23.90
2019-04-25T00:05:12.540Z,28.85
2019-04-25T00:07:45.468Z,28.00
2019-04-25T00:10:18.360Z,27.93
2019-04-25T00:12:51.799Z,25.55
2019-04-25T00:15:24.749Z,21.10
2019-04-25T00:17:57.681Z,31.57
2019-04-25T00:20:32.257Z,28.42
2019-04-25T00:33:44.019Z,27.37
2019-04-25T00:36:16.414Z,28.38
2019-04-25T00:38:50.278Z,27.48
2019-04-25T00:41:23.937Z,30.95
2019-04-25T00:43:56.844Z,31.27
2019-04-25T00:46:29.670Z,23.87
2019-04-25T00:49:02.631Z,32.78
2019-04-25T00:51:35.451Z,24.27
2019-04-25T00:54:08.411Z,27.32
2019-04-25T00:56:44.510Z,37.08
2019-04-25T00:59:22.108Z,33.33
2019-04-25T01:02:21.484Z,33.73
2019-04-25T01:04:54.508Z,21.15
2019-04-25T01:07:27.507Z,24.45
2019-04-25T01:10:02.000Z,27.22
2019-04-25T01:12:34.991Z,28.85
2019-04-25T01:15:11.602Z,29.27
2019-04-25T01:17:45.446Z,36.00
2019-04-25T01:20:18.513Z,29.05
2019-04-25T01:22:51.422Z,31.33
2019-04-25T01:25:24.353Z,31.68
2019-04-25T01:27:57.235Z,37.03
2019-04-25T01:30:31.309Z,24.92
2019-04-25T01:33:04.979Z,30.95
2019-04-25T01:35:55.682Z,25.17
2019-04-25T01:38:43.272Z,27.25
2019-04-25T01:41:34.220Z,28.55
2019-04-25T01:44:29.172Z,31.15
2019-04-25T01:47:04.151Z,28.50
2019-04-25T01:49:37.449Z,23.35
2019-04-25T01:52:10.332Z,30.17
2019-04-25T01:54:43.743Z,31.85
2019-04-25T01:57:16.706Z,31.50
2019-04-25T01:59:49.865Z,27.77
2019-04-25T02:02:24.474Z,24.92
2019-04-25T02:04:59.136Z,28.67
2019-04-25T02:07:33.377Z,35.48
2019-04-25T02:10:08.488Z,32.93
2019-04-25T02:12:46.717Z,39.58
2019-04-25T02:15:21.372Z,33.25
2019-04-25T02:17:56.944Z,24.98
2019-04-25T02:20:28.756Z,31.85
2019-04-25T02:23:02.098Z,41.42
2019-04-25T02:25:35.035Z,42.55
2019-04-25T02:28:07.837Z,33.35
2019-04-25T02:30:40.644Z,34.35
2019-04-25T02:33:14.247Z,24.77
2019-04-25T02:35:47.297Z,30.92
2019-04-25T02:38:20.224Z,25.97
2019-04-25T02:40:57.193Z,30.72
2019-04-25T02:43:27.811Z,37.80
2019-04-25T02:46:25.641Z,26.57
2019-04-25T02:49:29.329Z,37.48
2019-04-25T02:52:17.810Z,29.60
2019-04-25T02:54:49.210Z,39.20
2019-04-25T02:57:22.062Z,57.25
2019-04-25T02:59:56.933Z,45.25
2019-04-25T03:02:29.560Z,44.08
2019-04-25T03:05:06.243Z,39.50
2019-04-25T03:07:37.039Z,41.68
2019-04-25T03:10:14.854Z,31.15
2019-04-25T03:12:47.441Z,37.03
2019-04-25T03:15:20.342Z,33.18
2019-04-25T03:17:54.606Z,37.40
2019-04-25T03:20:46.504Z,24.70
2019-04-25T03:23:36.602Z,46.05
2019-04-25T03:26:09.777Z,44.75
2019-04-25T03:28:43.826Z,37.58
2019-04-25T03:31:22.434Z,45.15
2019-04-25T03:33:51.503Z,38.10
2019-04-25T03:36:24.353Z,45.67
2019-04-25T03:38:58.362Z,42.05
2019-04-25T03:41:32.274Z,49.95
2019-04-25T03:44:06.514Z,40.85
2019-04-25T03:46:39.417Z,48.60
2019-04-25T03:49:13.940Z,43.42
2019-04-25T03:51:47.034Z,40.05
2019-04-25T03:54:19.942Z,44.63
2019-04-25T03:56:55.623Z,27.50
2019-04-25T03:59:27.432Z,33.98
2019-04-25T04:02:01.266Z,30.88
2019-04-25T04:04:34.149Z,31.42
2019-04-25T04:07:08.821Z,28.98
2019-04-25T04:09:43.470Z,41.85
2019-04-25T04:12:16.201Z,39.63
2019-04-25T04:14:49.144Z,35.00
2019-04-25T04:17:35.034Z,33.33
2019-04-25T04:20:29.834Z,38.25
2019-04-25T04:23:10.232Z,32.42
2019-04-25T04:25:43.375Z,37.83
2019-04-25T04:28:16.230Z,39.23
2019-04-25T04:30:49.172Z,42.98
2019-04-25T04:33:30.233Z,32.88
2019-04-25T04:35:56.990Z,27.02
2019-04-25T04:38:29.977Z,26.17
2019-04-25T04:41:03.964Z,36.63
2019-04-25T04:43:37.244Z,26.33
2019-04-25T04:46:10.239Z,26.70
2019-04-25T04:48:43.810Z,34.70
2019-04-25T04:51:17.033Z,39.05
2019-04-25T04:53:49.831Z,33.75
2019-04-25T04:56:25.680Z,36.63
2019-04-25T04:58:58.471Z,43.87
2019-04-25T05:01:33.933Z,37.70
2019-04-25T05:04:14.901Z,40.05
2019-04-25T05:07:07.775Z,47.60
2019-04-25T05:09:40.652Z,33.60
2019-04-25T05:12:15.255Z,51.33
2019-04-25T05:14:48.879Z,41.25
2019-04-25T05:17:23.730Z,36.73
2019-04-25T05:19:57.073Z,31.55
2019-04-25T05:22:29.967Z,34.45
2019-04-25T05:25:03.461Z,40.98
2019-04-25T05:27:50.677Z,35.98
2019-04-25T05:30:15.695Z,29.45
2019-04-25T05:32:49.727Z,31.73
2019-04-25T05:35:25.008Z,39.98
2019-04-25T05:37:58.227Z,33.63
2019-04-25T05:40:31.105Z,28.87
2019-04-25T05:43:13.424Z,22.90
2019-04-25T05:45:47.227Z,30.45
2019-04-25T05:48:21.091Z,28.12
2019-04-25T05:50:54.933Z,35.30
2019-04-25T05:53:27.860Z,40.38
2019-04-25T05:56:04.126Z,31.17
2019-04-25T05:58:40.636Z,26.07
2019-04-25T06:01:13.615Z,45.00
2019-04-25T06:03:46.574Z,32.20
2019-04-25T06:06:20.871Z,35.50
2019-04-25T06:09:00.894Z,31.48
2019-04-25T06:11:43.761Z,46.75
2019-04-25T06:14:18.331Z,36.48
2019-04-25T06:16:53.652Z,39.27
2019-04-25T06:19:45.071Z,25.60
2019-04-25T06:22:26.814Z,28.02
2019-04-25T06:25:10.624Z,24.82
2019-04-25T06:27:51.184Z,22.45
2019-04-25T06:30:24.992Z,26.97
2019-04-25T06:32:58.895Z,28.38
2019-04-25T06:35:31.729Z,32.88
2019-04-25T06:38:04.605Z,25.40
2019-04-25T06:40:37.450Z,26.90
2019-04-25T06:43:10.299Z,22.65
2019-04-25T06:45:55.483Z,24.72
2019-04-25T06:48:47.200Z,23.73
2019-04-25T06:51:25.552Z,32.48
2019-04-25T06:53:57.461Z,29.65
2019-04-25T06:56:30.797Z,29.85
2019-04-25T06:59:03.972Z,32.88
2019-04-25T07:01:36.874Z,23.12
2019-04-25T07:04:09.702Z,30.00
2019-04-25T07:06:43.567Z,24.82
2019-04-25T07:09:17.252Z,19.37
2019-04-25T07:11:50.239Z,28.60
2019-04-25T07:14:24.831Z,26.37
2019-04-25T07:16:57.713Z,29.35
2019-04-25T07:19:30.584Z,32.40
2019-04-25T07:22:03.989Z,23.95
2019-04-25T07:24:37.086Z,27.95
2019-04-25T07:27:41.126Z,30.75
2019-04-25T07:30:51.522Z,30.10
2019-04-25T07:33:33.600Z,25.77
2019-04-25T07:36:07.181Z,28.00
2019-04-25T07:38:40.161Z,29.87
2019-04-25T07:41:14.764Z,21.40
2019-04-25T07:43:47.741Z,19.85
2019-04-25T07:46:20.698Z,34.78
2019-04-25T07:48:53.662Z,24.40
2019-04-25T07:51:28.246Z,26.48
2019-04-25T07:54:01.314Z,18.77
2019-04-25T07:56:35.221Z,24.82
2019-04-25T07:59:09.098Z,21.95
2019-04-25T08:01:43.613Z,28.67
2019-04-25T08:04:16.696Z,29.98
2019-04-25T08:06:50.341Z,24.23
2019-04-25T08:09:24.313Z,22.00
2019-04-25T08:11:57.391Z,24.87
2019-04-25T08:15:01.141Z,24.12
2019-04-25T08:17:51.548Z,34.75
2019-04-25T08:20:24.912Z,26.00
2019-04-25T08:22:59.095Z,20.08
2019-04-25T08:25:33.472Z,31.60
2019-04-25T08:28:07.003Z,29.80
2019-04-25T08:30:39.902Z,20.80
2019-04-25T08:33:13.975Z,23.30
2019-04-25T08:36:03.531Z,17.52
2019-04-25T08:38:23.740Z,30.52
2019-04-25T08:40:56.925Z,30.68
2019-04-25T08:43:30.024Z,16.65
2019-04-25T08:46:04.239Z,22.45
2019-04-25T08:48:56.007Z,22.50
2019-04-25T08:51:33.864Z,29.77
2019-04-25T08:54:17.022Z,19.92
2019-04-25T08:56:50.110Z,18.70
2019-04-25T08:59:52.293Z,25.55
2019-04-25T09:02:35.436Z,25.75
2019-04-25T09:05:40.488Z,22.42
2019-04-25T09:08:14.259Z,19.92
2019-04-25T09:10:47.299Z,22.42
2019-04-25T09:13:20.165Z,24.92
2019-04-25T09:15:54.156Z,28.30
2019-04-25T09:18:29.011Z,23.22
2019-04-25T09:21:03.883Z,22.35
2019-04-25T09:23:37.859Z,24.07
2019-04-25T09:26:10.875Z,21.37
2019-04-25T09:28:45.510Z,31.02
2019-04-25T09:31:18.393Z,28.35
2019-04-25T09:33:54.161Z,22.95
2019-04-25T09:36:27.293Z,34.18
2019-04-25T09:39:01.057Z,21.82
2019-04-25T09:41:36.096Z,21.75
2019-04-25T09:44:10.927Z,22.05
2019-04-25T09:46:46.854Z,17.17
2019-04-25T09:49:27.051Z,21.50
2019-04-25T09:52:04.064Z,16.90
2019-04-25T09:54:48.820Z,31.93
2019-04-25T09:57:46.023Z,19.37
2019-04-25T10:00:31.195Z,22.82
2019-04-25T10:03:04.669Z,24.47
2019-04-25T10:05:38.490Z,27.17
2019-04-25T10:08:13.372Z,20.85
2019-04-25T10:10:46.747Z,18.77
2019-04-25T10:13:21.052Z,21.93
2019-04-25T10:16:19.206Z,22.00
2019-04-25T10:18:53.308Z,19.67
2019-04-25T10:21:26.397Z,22.82
2019-04-25T10:23:59.248Z,31.75
2019-04-25T10:26:34.955Z,28.85
2019-04-25T10:29:08.295Z,21.07
2019-04-25T10:31:41.291Z,25.75
2019-04-25T10:34:15.982Z,22.17
2019-04-25T10:36:49.038Z,21.23
2019-04-25T10:39:22.733Z,21.80
2019-04-25T10:41:55.792Z,20.65
2019-04-25T10:44:28.769Z,22.85
2019-04-25T10:47:02.009Z,29.90
2019-04-25T10:49:35.021Z,17.57
2019-04-25T10:52:08.745Z,18.95
2019-04-25T10:54:41.653Z,18.20
2019-04-25T10:57:14.943Z,18.40
2019-04-25T11:00:00.349Z,19.52
2019-04-25T11:02:25.845Z,19.60
2019-04-25T11:05:05.109Z,18.87
2019-04-25T11:07:38.209Z,24.43
2019-04-25T11:10:16.110Z,21.57
2019-04-25T11:12:49.434Z,19.40
2019-04-25T11:15:23.400Z,18.75
2019-04-25T11:17:56.427Z,17.05
2019-04-25T11:20:33.819Z,13.95
2019-04-25T11:23:07.081Z,32.58
2019-04-25T11:25:40.616Z,24.50
2019-04-25T11:28:14.625Z,19.02
2019-04-25T11:30:49.125Z,29.23
2019-04-25T11:33:22.969Z,20.48
2019-04-25T11:35:56.906Z,21.45
2019-04-25T11:38:37.641Z,21.17
2019-04-25T11:41:14.318Z,20.95
2019-04-25T11:43:48.789Z,24.37
2019-04-25T11:46:21.673Z,26.33
2019-04-25T11:48:54.872Z,18.80
2019-04-25T11:51:27.904Z,19.52
2019-04-25T11:54:00.848Z,36.50
2019-04-25T11:56:34.231Z,14.47
2019-04-25T11:59:07.387Z,23.75
2019-04-25T12:01:40.321Z,24.45
2019-04-25T12:04:14.835Z,17.30
2019-04-25T12:06:51.243Z,28.15
2019-04-25T12:09:24.210Z,18.42
2019-04-25T12:11:57.355Z,18.55
2019-04-25T12:14:30.303Z,23.20
2019-04-25T12:17:03.747Z,24.20
2019-04-25T12:19:38.084Z,28.65
2019-04-25T12:22:13.573Z,23.10
2019-04-25T12:24:46.754Z,17.32
2019-04-25T12:27:19.640Z,30.12
2019-04-25T12:29:52.492Z,21.77
2019-04-25T12:32:25.372Z,25.40
2019-04-25T12:34:58.331Z,25.92
2019-04-25T12:37:31.282Z,20.55
2019-04-25T12:40:06.339Z,22.30
2019-04-25T12:42:40.362Z,29.92
2019-04-25T12:45:35.837Z,24.37
2019-04-25T12:48:09.479Z,23.60
2019-04-25T12:50:43.886Z,19.92
2019-04-25T12:53:16.865Z,22.17
2019-04-25T12:55:49.784Z,23.67
2019-04-25T12:58:23.513Z,17.15
2019-04-25T13:00:59.063Z,25.77
2019-04-25T13:03:33.616Z,22.85
2019-04-25T13:06:07.299Z,14.05
2019-04-25T13:08:40.345Z,16.02
2019-04-25T13:11:13.975Z,21.75
2019-04-25T13:13:46.960Z,18.77
2019-04-25T13:16:19.792Z,23.70
2019-04-25T13:18:53.397Z,16.05
2019-04-25T13:21:26.417Z,22.65
2019-04-25T13:23:59.323Z,20.45
2019-04-25T13:26:36.815Z,14.87
2019-04-25T13:29:40.529Z,14.75
2019-04-25T13:32:27.322Z,21.97
2019-04-25T13:35:01.017Z,21.87
2019-04-25T13:37:35.126Z,34.00
2019-04-25T13:40:08.945Z,17.20
2019-04-25T13:42:43.180Z,21.40
2019-04-25T13:45:16.591Z,23.22
2019-04-25T13:47:49.976Z,23.32
2019-04-25T13:50:24.001Z,13.72
2019-04-25T13:52:59.650Z,14.20
2019-04-25T13:55:32.792Z,19.27
2019-04-25T13:58:05.875Z,19.75
2019-04-25T14:00:38.974Z,16.02
2019-04-25T14:03:11.928Z,16.95
2019-04-25T14:05:45.957Z,13.25
2019-04-25T14:08:18.911Z,20.85
2019-04-25T14:10:52.103Z,11.35
2019-04-25T14:13:26.310Z,17.85
2019-04-25T14:16:15.993Z,20.32
2019-04-25T14:19:10.899Z,24.77
2019-04-25T14:21:45.261Z,27.65
2019-04-25T14:24:20.601Z,21.77
2019-04-25T14:26:52.770Z,22.45
2019-04-25T14:29:26.126Z,12.95
2019-04-25T14:31:59.251Z,11.05
2019-04-25T14:34:33.709Z,13.93
2019-04-25T14:37:08.144Z,16.15
2019-04-25T14:39:41.304Z,17.45
2019-04-25T14:42:14.471Z,16.52
2019-04-25T14:44:50.401Z,12.45
2019-04-25T14:47:24.395Z,19.30
2019-04-25T14:49:57.775Z,16.95
2019-04-25T14:52:30.718Z,14.00
2019-04-25T14:55:29.598Z,22.65
2019-04-25T14:58:04.875Z,13.78
2019-04-25T15:00:42.017Z,12.37
2019-04-25T15:03:15.177Z,19.10
2019-04-25T15:05:48.664Z,24.72
2019-04-25T15:08:24.950Z,21.87
2019-04-25T15:10:58.186Z,29.05
2019-04-25T15:13:31.840Z,19.42
2019-04-25T15:16:05.211Z,15.55
2019-04-25T15:18:46.500Z,16.37
2019-04-25T15:21:13.040Z,23.38
2019-04-25T15:23:45.851Z,30.70
2019-04-25T15:26:19.086Z,14.25
2019-04-25T15:28:52.497Z,10.95
2019-04-25T15:31:25.671Z,11.88
2019-04-25T15:34:02.488Z,15.88
2019-04-25T15:36:44.981Z,16.97
2019-04-25T15:39:39.913Z,18.98
2019-04-25T15:42:38.815Z,16.30
2019-04-25T15:45:34.256Z,11.25
2019-04-25T15:48:08.435Z,15.45
2019-04-25T15:50:41.959Z,22.58
2019-04-25T15:53:14.861Z,21.30
2019-04-25T15:55:47.915Z,23.85
2019-04-25T15:58:20.834Z,19.75
2019-04-25T16:00:53.770Z,16.85
2019-04-25T16:03:28.320Z,18.85
2019-04-25T16:06:01.214Z,20.95
2019-04-25T16:08:35.114Z,23.83
2019-04-25T16:11:08.148Z,19.82
2019-04-25T16:13:41.127Z,18.40
2019-04-25T16:16:13.913Z,24.40
2019-04-25T16:18:46.812Z,19.77
2019-04-25T16:21:20.238Z,19.37
2019-04-25T16:23:53.124Z,18.70
2019-04-25T16:26:26.978Z,33.80
2019-04-25T16:29:00.678Z,26.42
2019-04-25T16:31:34.564Z,23.90
2019-04-25T16:34:07.569Z,20.85
2019-04-25T16:36:40.405Z,16.45
2019-04-25T16:39:19.180Z,21.82
2019-04-25T16:41:52.466Z,22.02
2019-04-25T16:44:25.500Z,20.30
2019-04-25T16:46:58.431Z,19.60
2019-04-25T16:49:32.516Z,19.50
2019-04-25T16:52:08.541Z,17.07
2019-04-25T16:54:42.949Z,17.35
2019-04-25T16:57:15.923Z,14.75
2019-04-25T16:59:48.852Z,13.43
2019-04-25T17:02:32.496Z,17.37
2019-04-25T17:04:57.047Z,22.15
2019-04-25T17:07:30.446Z,34.95
2019-04-25T17:10:03.374Z,22.17
2019-04-25T17:12:38.467Z,39.80
2019-04-25T17:15:30.535Z,20.70
2019-04-25T17:18:08.869Z,13.60
2019-04-25T17:20:46.980Z,14.00
2019-04-25T17:23:25.380Z,16.27
2019-04-25T17:25:58.432Z,21.52
2019-04-25T17:28:33.116Z,16.23
2019-04-25T17:31:17.543Z,16.42
2019-04-25T17:34:04.846Z,15.05
2019-04-25T17:36:52.451Z,19.82
2019-04-25T17:39:44.432Z,24.05
2019-04-25T17:42:17.967Z,22.90
2019-04-25T17:44:52.924Z,17.42
2019-04-25T17:47:28.629Z,25.90
2019-04-25T17:50:08.000Z,23.75
2019-04-25T17:52:43.508Z,22.65
2019-04-25T17:55:17.237Z,43.20
2019-04-25T17:57:57.202Z,30.77
2019-04-25T18:00:39.699Z,25.68
2019-04-25T18:03:14.249Z,29.00
2019-04-25T18:05:49.913Z,31.02
2019-04-25T18:08:24.608Z,38.35
2019-04-25T18:10:59.108Z,34.80
2019-04-25T18:13:34.384Z,43.48
2019-04-25T18:16:23.656Z,46.37
2019-04-25T18:19:09.226Z,43.33
2019-04-25T18:21:43.108Z,49.35
2019-04-25T18:24:39.046Z,73.25
2019-04-25T18:27:24.952Z,72.95
2019-04-25T18:30:06.173Z,67.53
2019-04-25T18:32:47.948Z,53.45
2019-04-25T18:35:28.727Z,45.03
2019-04-25T18:38:19.705Z,51.30
2019-04-25T18:41:03.930Z,37.20
2019-04-25T18:43:47.105Z,56.70
2019-04-25T18:46:28.597Z,44.95
2019-04-25T18:49:05.179Z,61.13
2019-04-25T18:51:38.731Z,48.65
2019-04-25T18:54:32.710Z,61.68
2019-04-25T18:57:37.649Z,68.92
2019-04-25T19:00:37.810Z,87.90
2019-04-25T19:03:33.108Z,100.95
2019-04-25T19:06:10.375Z,144.65
2019-04-25T19:08:43.516Z,123.50
2019-04-25T19:11:16.783Z,85.77
2019-04-25T19:13:49.931Z,54.75
2019-04-25T19:16:23.199Z,43.15
2019-04-25T19:18:56.332Z,45.23
2019-04-25T19:21:33.217Z,40.98
2019-04-25T19:24:06.643Z,47.78
2019-04-25T19:26:43.198Z,38.63
2019-04-25T19:29:14.729Z,46.50
2019-04-25T19:31:51.942Z,51.25
2019-04-25T19:34:24.302Z,52.58
2019-04-25T19:36:57.697Z,145.05
2019-04-25T19:39:36.321Z,125.80
2019-04-25T19:42:24.997Z,133.10
2019-04-25T19:45:02.388Z,122.53
2019-04-25T19:47:55.336Z,117.62
2019-04-25T19:50:51.177Z,116.33
2019-04-25T19:53:31.324Z,124.60
2019-04-25T19:56:22.924Z,113.05
2019-04-25T19:59:19.777Z,101.90
2019-04-25T20:02:04.375Z,97.25
2019-04-25T20:04:49.733Z,91.78
2019-04-25T20:11:04.129Z,107.25
2019-04-25T20:14:07.336Z,151.40
2019-04-25T20:17:11.329Z,197.25
2019-04-25T20:20:40.584Z,200.47
2019-04-25T20:23:54.469Z,149.15
2019-04-25T20:26:30.670Z,137.05
2019-04-25T20:29:11.459Z,157.57
2019-04-25T20:31:47.413Z,123.50
2019-04-25T20:34:21.358Z,140.80
2019-04-25T20:36:55.982Z,130.47
2019-04-25T20:39:31.014Z,111.65
2019-04-25T20:42:09.822Z,140.62
2019-04-25T20:44:43.878Z,116.10
2019-04-25T20:47:17.621Z,118.57
2019-04-25T20:49:53.569Z,107.55
2019-04-25T20:52:26.933Z,103.55
2019-04-25T20:55:03.188Z,90.07
2019-04-25T20:57:36.267Z,80.42
2019-04-25T21:00:10.303Z,74.77
2019-04-25T21:02:44.153Z,75.22
2019-04-25T21:05:17.016Z,73.07
2019-04-25T21:07:49.974Z,83.80
2019-04-25T21:10:24.287Z,79.50
2019-04-25T21:12:57.779Z,84.22
2019-04-25T21:15:49.581Z,101.30
2019-04-25T21:18:34.344Z,98.47
2019-04-25T21:21:07.304Z,101.85
2019-04-25T21:23:40.176Z,102.58
2019-04-25T21:26:13.080Z,100.53
2019-04-25T21:28:46.181Z,100.82
2019-04-25T21:31:19.132Z,100.30
2019-04-25T21:33:52.633Z,82.75
2019-04-25T21:36:26.121Z,66.75
2019-04-25T21:38:59.806Z,72.27
2019-04-25T21:42:08.553Z,76.95
2019-04-25T21:44:41.747Z,55.17
2019-04-25T21:47:16.102Z,59.98
2019-04-25T21:49:49.328Z,57.53
2019-04-25T21:52:22.628Z,80.45
2019-04-25T21:54:55.832Z,83.42
2019-04-25T21:57:29.101Z,52.43
2019-04-25T22:00:06.688Z,73.15
2019-04-25T22:02:38.584Z,79.62
2019-04-25T22:05:12.445Z,84.55
2019-04-25T22:07:45.518Z,85.15
2019-04-25T22:10:18.849Z,69.25
2019-04-25T22:12:51.881Z,66.15
2019-04-25T22:15:27.914Z,61.68
2019-04-25T22:18:00.194Z,67.75
2019-04-25T22:20:33.327Z,68.60
2019-04-25T22:23:06.786Z,60.40
2019-04-25T22:25:40.038Z,63.95
2019-04-25T22:28:14.359Z,71.50
2019-04-25T22:30:49.562Z,82.62
2019-04-25T22:33:41.284Z,119.35
2019-04-25T22:36:17.216Z,87.67
2019-04-25T22:39:07.544Z,88.00
2019-04-25T22:41:50.005Z,82.40
2019-04-25T22:44:22.428Z,82.00
2019-04-25T22:46:55.550Z,80.60
2019-04-25T22:49:28.639Z,66.50
2019-04-25T22:52:01.748Z,59.70
2019-04-25T22:54:37.146Z,52.05
2019-04-25T22:57:10.023Z,64.80
2019-04-25T22:59:43.295Z,64.07
2019-04-25T23:02:34.977Z,68.50
2019-04-25T23:05:25.266Z,59.83
2019-04-25T23:07:58.632Z,55.38
2019-04-25T23:10:31.734Z,52.93
2019-04-25T23:13:04.732Z,48.42
2019-04-25T23:15:37.638Z,38.80
2019-04-25T23:18:11.385Z,52.17
2019-04-25T23:20:44.567Z,41.73
2019-04-25T23:23:17.643Z,47.35
2019-04-25T23:26:12.359Z,43.63
2019-04-25T23:28:45.937Z,47.50
2019-04-25T23:31:26.130Z,45.05
2019-04-25T23:33:59.510Z,51.55
2019-04-25T23:36:32.714Z,41.25
2019-04-25T23:39:09.369Z,61.60
2019-04-25T23:41:42.676Z,54.73
2019-04-25T23:44:16.169Z,48.45
2019-04-25T23:46:49.276Z,48.63
2019-04-25T23:49:23.048Z,53.23
2019-04-25T23:51:56.244Z,54.38
2019-04-25T23:54:29.066Z,54.13
2019-04-25T23:57:02.319Z,58.68
2019-04-25T23:59:35.499Z,56.50
